createdAt,value
2017-10-05T00:00:12.280Z,928.77
2017-10-05T00:00:31.553Z,928.73
2017-10-05T00:00:49.769Z,928.77
2017-10-05T00:01:08.536Z,928.72
2017-10-05T00:01:27.835Z,928.74
2017-10-05T00:01:46.109Z,928.75
2017-10-05T00:02:04.893Z,928.71
2017-10-05T00:02:24.242Z,928.76
2017-10-05T00:02:43.539Z,928.74
2017-10-05T00:03:02.295Z,928.72
2017-10-05T00:03:21.546Z,928.75
2017-10-05T00:03:40.815Z,928.75
2017-10-05T00:04:00.129Z,928.78
2017-10-05T00:04:18.362Z,928.77
2017-10-05T00:04:36.627Z,928.74
2017-10-05T00:04:55.396Z,928.78
2017-10-05T00:05:14.150Z,928.78
2017-10-05T00:05:31.860Z,928.78
2017-10-05T00:05:50.601Z,928.82
2017-10-05T00:06:09.372Z,928.8
2017-10-05T00:06:28.138Z,928.85
2017-10-05T00:06:46.369Z,928.8
2017-10-05T00:07:05.136Z,928.81
2017-10-05T00:07:24.001Z,928.8
2017-10-05T00:07:42.738Z,928.82
2017-10-05T00:08:01.498Z,928.81
2017-10-05T00:08:19.727Z,928.83
2017-10-05T00:08:38.508Z,928.83
2017-10-05T00:08:57.281Z,928.82
2017-10-05T00:09:15.702Z,928.8
2017-10-05T00:09:35.132Z,928.77
2017-10-05T00:09:54.391Z,928.8
2017-10-05T00:10:13.142Z,928.78
2017-10-05T00:10:31.905Z,928.77
2017-10-05T00:10:49.644Z,928.77
2017-10-05T00:11:08.423Z,928.78
2017-10-05T00:11:27.691Z,928.8
2017-10-05T00:11:46.443Z,928.76
2017-10-05T00:12:05.246Z,928.78
2017-10-05T00:12:24.016Z,928.75
2017-10-05T00:12:42.263Z,928.78
2017-10-05T00:13:01.539Z,928.78
2017-10-05T00:13:20.802Z,928.78
2017-10-05T00:13:39.023Z,928.79
2017-10-05T00:13:57.759Z,928.76
2017-10-05T00:14:16.573Z,928.74
2017-10-05T00:14:35.309Z,928.7
2017-10-05T00:14:54.620Z,928.69
2017-10-05T00:15:13.949Z,928.69
2017-10-05T00:15:33.332Z,928.69
2017-10-05T00:15:52.073Z,928.67
2017-10-05T00:16:11.449Z,928.65
2017-10-05T00:16:30.200Z,928.7
2017-10-05T00:16:47.926Z,928.68
2017-10-05T00:17:07.228Z,928.71
2017-10-05T00:17:26.551Z,928.7
2017-10-05T00:17:44.805Z,928.72
2017-10-05T00:18:04.081Z,928.67
2017-10-05T00:18:21.816Z,928.68
2017-10-05T00:18:41.106Z,928.68
2017-10-05T00:19:00.369Z,928.73
2017-10-05T00:19:19.172Z,928.69
2017-10-05T00:19:37.410Z,928.71
2017-10-05T00:19:56.673Z,928.74
2017-10-05T00:20:15.957Z,928.69
2017-10-05T00:20:34.729Z,928.71
2017-10-05T00:20:54.040Z,928.76
2017-10-05T00:21:12.830Z,928.8
2017-10-05T00:21:32.113Z,928.74
2017-10-05T00:21:51.417Z,928.75
2017-10-05T00:22:10.161Z,928.78
2017-10-05T00:22:29.149Z,928.76
2017-10-05T00:22:47.920Z,928.74
2017-10-05T00:23:06.693Z,928.74
2017-10-05T00:23:25.994Z,928.76
2017-10-05T00:23:45.276Z,928.74
2017-10-05T00:24:04.531Z,928.73
2017-10-05T00:24:23.272Z,928.76
2017-10-05T00:24:42.523Z,928.77
2017-10-05T00:25:01.800Z,928.78
2017-10-05T00:25:21.092Z,928.78
2017-10-05T00:25:39.910Z,928.78
2017-10-05T00:25:58.802Z,928.78
2017-10-05T00:26:18.096Z,928.76
2017-10-05T00:26:36.877Z,928.79
2017-10-05T00:26:55.749Z,928.83
2017-10-05T00:27:14.502Z,928.84
2017-10-05T00:27:33.397Z,928.85
2017-10-05T00:29:13.275Z,928.87
2017-10-05T00:29:57.190Z,928.89
2017-10-05T00:31:18.281Z,928.88
2017-10-05T00:31:37.060Z,928.86
2017-10-05T00:32:15.285Z,928.9
2017-10-05T00:32:34.176Z,928.9
2017-10-05T00:32:53.453Z,928.88
2017-10-05T00:33:12.806Z,928.86
2017-10-05T00:33:32.113Z,928.86
2017-10-05T00:33:50.874Z,928.83
2017-10-05T00:34:08.594Z,928.86
2017-10-05T00:34:27.338Z,928.83
2017-10-05T00:34:46.647Z,928.83
2017-10-05T00:35:04.389Z,928.84
2017-10-05T00:35:23.674Z,928.81
2017-10-05T00:35:42.433Z,928.87
2017-10-05T00:36:01.700Z,928.85
2017-10-05T00:36:19.933Z,928.84
2017-10-05T00:37:07.404Z,928.89
2017-10-05T00:37:26.867Z,928.9
2017-10-05T00:37:46.130Z,928.9
2017-10-05T00:38:05.448Z,928.85
2017-10-05T00:38:23.153Z,928.87
2017-10-05T00:38:42.060Z,928.89
2017-10-05T00:39:00.293Z,928.85
2017-10-05T00:39:19.114Z,928.85
2017-10-05T00:39:36.841Z,928.87
2017-10-05T00:39:56.129Z,928.84
2017-10-05T00:40:14.395Z,928.84
2017-10-05T00:40:32.620Z,928.81
2017-10-05T00:40:50.878Z,928.82
2017-10-05T00:41:09.682Z,928.82
2017-10-05T00:41:28.485Z,928.81
2017-10-05T00:41:46.735Z,928.77
2017-10-05T00:42:05.456Z,928.78
2017-10-05T00:42:24.735Z,928.77
2017-10-05T00:42:43.026Z,928.77
2017-10-05T00:43:01.790Z,928.76
2017-10-05T00:43:20.567Z,928.76
2017-10-05T00:43:39.355Z,928.75
2017-10-05T00:43:57.618Z,928.78
2017-10-05T00:44:16.905Z,928.81
2017-10-05T00:44:36.179Z,928.81
2017-10-05T00:44:54.964Z,928.77
2017-10-05T00:45:13.209Z,928.78
2017-10-05T00:45:32.613Z,928.76
2017-10-05T00:45:52.094Z,928.79
2017-10-05T00:46:10.917Z,928.78
2017-10-05T00:46:29.812Z,928.78
2017-10-05T00:46:49.122Z,928.76
2017-10-05T00:47:07.891Z,928.79
2017-10-05T00:47:26.684Z,928.78
2017-10-05T00:47:46.038Z,928.78
2017-10-05T00:48:05.418Z,928.8
2017-10-05T00:48:24.158Z,928.8
2017-10-05T00:48:42.426Z,928.8
2017-10-05T00:49:01.682Z,928.8
2017-10-05T00:49:20.501Z,928.76
2017-10-05T00:49:40.021Z,928.82
2017-10-05T00:49:59.316Z,928.79
2017-10-05T00:50:18.056Z,928.76
2017-10-05T00:50:37.335Z,928.82
2017-10-05T00:50:56.189Z,928.82
2017-10-05T00:51:15.662Z,928.84
2017-10-05T00:51:34.966Z,928.81
2017-10-05T00:51:53.729Z,928.82
2017-10-05T00:52:13.007Z,928.79
2017-10-05T00:52:32.667Z,928.81
2017-10-05T00:52:50.907Z,928.78
2017-10-05T00:53:09.158Z,928.79
2017-10-05T00:53:27.937Z,928.81
2017-10-05T00:53:46.699Z,928.79
2017-10-05T00:54:04.940Z,928.79
2017-10-05T00:54:23.181Z,928.77
2017-10-05T00:54:41.945Z,928.78
2017-10-05T00:55:01.221Z,928.77
2017-10-05T00:55:20.498Z,928.76
2017-10-05T00:55:39.844Z,928.76
2017-10-05T00:55:58.601Z,928.75
2017-10-05T00:56:17.392Z,928.74
2017-10-05T00:56:36.163Z,928.75
2017-10-05T00:56:54.956Z,928.73
2017-10-05T00:57:13.830Z,928.7
2017-10-05T00:57:32.756Z,928.73
2017-10-05T00:57:51.542Z,928.73
2017-10-05T00:58:10.837Z,928.73
2017-10-05T00:58:30.184Z,928.72
2017-10-05T00:58:49.483Z,928.74
2017-10-05T00:59:07.202Z,928.72
2017-10-05T00:59:25.966Z,928.74
2017-10-05T00:59:45.371Z,928.73
2017-10-05T01:00:04.195Z,928.73
2017-10-05T01:00:23.499Z,928.73
2017-10-05T01:00:42.276Z,928.71
2017-10-05T01:01:00.541Z,928.66
2017-10-05T01:01:18.820Z,928.63
2017-10-05T01:01:36.516Z,928.69
2017-10-05T01:01:55.814Z,928.68
2017-10-05T01:02:15.067Z,928.63
2017-10-05T01:02:33.968Z,928.64
2017-10-05T01:02:53.236Z,928.63
2017-10-05T01:03:11.971Z,928.65
2017-10-05T01:03:30.739Z,928.63
2017-10-05T01:03:50.039Z,928.65
2017-10-05T01:04:09.310Z,928.66
2017-10-05T01:04:28.582Z,928.65
2017-10-05T01:04:47.340Z,928.64
2017-10-05T01:05:06.626Z,928.64
2017-10-05T01:05:25.928Z,928.63
2017-10-05T01:05:44.167Z,928.61
2017-10-05T01:06:03.455Z,928.59
2017-10-05T01:06:22.747Z,928.66
2017-10-05T01:06:40.998Z,928.65
2017-10-05T01:07:00.252Z,928.64
2017-10-05T01:07:19.013Z,928.62
2017-10-05T01:07:38.040Z,928.66
2017-10-05T01:07:57.343Z,928.58
2017-10-05T01:08:16.097Z,928.62
2017-10-05T01:08:34.857Z,928.62
2017-10-05T01:08:53.606Z,928.62
2017-10-05T01:09:12.866Z,928.63
2017-10-05T01:09:32.146Z,928.62
2017-10-05T01:09:50.367Z,928.59
2017-10-05T01:10:09.640Z,928.63
2017-10-05T01:10:27.901Z,928.64
2017-10-05T01:10:46.148Z,928.58
2017-10-05T01:11:05.449Z,928.59
2017-10-05T01:11:24.703Z,928.59
2017-10-05T01:11:43.458Z,928.6
2017-10-05T01:12:02.216Z,928.61
2017-10-05T01:12:21.530Z,928.58
2017-10-05T01:12:39.862Z,928.59
2017-10-05T01:12:58.615Z,928.6
2017-10-05T01:13:17.881Z,928.58
2017-10-05T01:13:37.179Z,928.58
2017-10-05T01:13:55.940Z,928.59
2017-10-05T01:14:15.216Z,928.55
2017-10-05T01:14:33.981Z,928.55
2017-10-05T01:14:52.761Z,928.53
2017-10-05T01:15:10.462Z,928.54
2017-10-05T01:15:28.704Z,928.53
2017-10-05T01:15:47.455Z,928.51
2017-10-05T01:16:06.212Z,928.53
2017-10-05T01:16:25.500Z,928.5
2017-10-05T01:16:43.737Z,928.52
2017-10-05T01:17:03.038Z,928.52
2017-10-05T01:17:21.798Z,928.5
2017-10-05T01:17:41.246Z,928.53
2017-10-05T01:17:59.992Z,928.53
2017-10-05T01:18:18.732Z,928.51
2017-10-05T01:18:38.029Z,928.53
2017-10-05T01:18:56.806Z,928.52
2017-10-05T01:19:16.079Z,928.54
2017-10-05T01:19:35.363Z,928.57
2017-10-05T01:19:54.614Z,928.55
2017-10-05T01:20:13.869Z,928.58
2017-10-05T01:20:32.094Z,928.57
2017-10-05T01:20:49.797Z,928.58
2017-10-05T01:21:08.570Z,928.6
2017-10-05T01:21:27.857Z,928.56
2017-10-05T01:21:46.666Z,928.59
2017-10-05T01:22:04.907Z,928.55
2017-10-05T01:22:23.647Z,928.58
2017-10-05T01:22:43.216Z,928.57
2017-10-05T01:23:01.962Z,928.58
2017-10-05T01:23:21.226Z,928.58
2017-10-05T01:23:39.964Z,928.58
2017-10-05T01:23:57.165Z,928.59
2017-10-05T01:24:15.919Z,928.61
2017-10-05T01:24:35.206Z,928.6
2017-10-05T01:25:06.926Z,928.59
2017-10-05T01:25:26.200Z,928.59
2017-10-05T01:25:44.450Z,928.56
2017-10-05T01:26:03.215Z,928.6
2017-10-05T01:26:21.956Z,928.53
2017-10-05T01:26:40.702Z,928.55
2017-10-05T01:26:58.925Z,928.51
2017-10-05T01:27:18.203Z,928.49
2017-10-05T01:27:37.483Z,928.46
2017-10-05T01:27:56.282Z,928.49
2017-10-05T01:28:15.062Z,928.5
2017-10-05T01:28:33.815Z,928.52
2017-10-05T01:28:51.524Z,928.49
2017-10-05T01:29:10.271Z,928.52
2017-10-05T01:29:29.039Z,928.48
2017-10-05T01:29:47.278Z,928.48
2017-10-05T01:30:06.557Z,928.5
2017-10-05T01:30:25.316Z,928.43
2017-10-05T01:30:44.580Z,928.46
2017-10-05T01:31:03.320Z,928.46
2017-10-05T01:31:21.540Z,928.48
2017-10-05T01:31:40.839Z,928.43
2017-10-05T01:31:59.089Z,928.48
2017-10-05T01:32:17.907Z,928.44
2017-10-05T01:32:37.179Z,928.43
2017-10-05T01:32:55.400Z,928.42
2017-10-05T01:33:14.152Z,928.43
2017-10-05T01:33:32.390Z,928.41
2017-10-05T01:33:51.652Z,928.41
2017-10-05T01:34:10.983Z,928.39
2017-10-05T01:34:29.225Z,928.38
2017-10-05T01:34:47.973Z,928.39
2017-10-05T01:35:06.712Z,928.36
2017-10-05T01:35:25.988Z,928.36
2017-10-05T01:35:44.729Z,928.38
2017-10-05T01:36:03.485Z,928.35
2017-10-05T01:36:21.758Z,928.35
2017-10-05T01:36:40.557Z,928.33
2017-10-05T01:36:59.313Z,928.35
2017-10-05T01:37:17.550Z,928.35
2017-10-05T01:37:36.828Z,928.37
2017-10-05T01:37:55.241Z,928.37
2017-10-05T01:38:14.004Z,928.39
2017-10-05T01:38:33.289Z,928.38
2017-10-05T01:38:51.518Z,928.39
2017-10-05T01:39:09.786Z,928.35
2017-10-05T01:39:29.094Z,928.37
2017-10-05T01:39:48.460Z,928.38
2017-10-05T01:40:07.210Z,928.33
2017-10-05T01:40:26.470Z,928.31
2017-10-05T01:40:44.706Z,928.36
2017-10-05T01:41:03.440Z,928.35
2017-10-05T01:41:22.207Z,928.36
2017-10-05T01:41:40.942Z,928.3
2017-10-05T01:41:59.156Z,928.25
2017-10-05T01:42:17.936Z,928.3
2017-10-05T01:42:36.735Z,928.31
2017-10-05T01:42:55.766Z,928.32
2017-10-05T01:43:15.042Z,928.31
2017-10-05T01:43:33.795Z,928.33
2017-10-05T01:43:51.489Z,928.31
2017-10-05T01:44:08.678Z,928.3
2017-10-05T01:44:26.896Z,928.31
2017-10-05T01:44:46.169Z,928.38
2017-10-05T01:45:05.499Z,928.33
2017-10-05T01:45:24.248Z,928.3
2017-10-05T01:45:43.027Z,928.31
2017-10-05T01:46:01.272Z,928.3
2017-10-05T01:46:20.030Z,928.3
2017-10-05T01:46:38.824Z,928.3
2017-10-05T01:46:57.065Z,928.27
2017-10-05T01:47:15.303Z,928.32
2017-10-05T01:47:34.638Z,928.29
2017-10-05T01:47:53.426Z,928.32
2017-10-05T01:48:12.726Z,928.31
2017-10-05T01:48:32.014Z,928.26
2017-10-05T01:48:51.275Z,928.33
2017-10-05T01:49:10.036Z,928.35
2017-10-05T01:49:28.794Z,928.3
2017-10-05T01:49:47.033Z,928.29
2017-10-05T01:50:06.311Z,928.32
2017-10-05T01:50:25.585Z,928.35
2017-10-05T01:50:43.804Z,928.36
2017-10-05T01:51:02.562Z,928.32
2017-10-05T01:51:21.850Z,928.35
2017-10-05T01:51:40.654Z,928.32
2017-10-05T01:51:58.900Z,928.36
2017-10-05T01:52:17.683Z,928.38
2017-10-05T01:52:36.417Z,928.42
2017-10-05T01:52:55.187Z,928.42
2017-10-05T01:53:13.917Z,928.41
2017-10-05T01:53:33.190Z,928.39
2017-10-05T01:53:51.438Z,928.35
2017-10-05T01:54:10.200Z,928.38
2017-10-05T01:54:29.472Z,928.37
2017-10-05T01:54:47.721Z,928.37
2017-10-05T01:55:06.483Z,928.34
2017-10-05T01:55:25.218Z,928.34
2017-10-05T01:55:43.971Z,928.33
2017-10-05T01:56:02.209Z,928.31
2017-10-05T01:56:20.427Z,928.33
2017-10-05T01:56:39.715Z,928.28
2017-10-05T01:56:57.952Z,928.33
2017-10-05T01:57:16.174Z,928.32
2017-10-05T01:57:34.922Z,928.32
2017-10-05T01:57:54.252Z,928.3
2017-10-05T01:58:12.983Z,928.3
2017-10-05T01:58:31.237Z,928.22
2017-10-05T01:58:49.985Z,928.24
2017-10-05T01:59:08.741Z,928.29
2017-10-05T01:59:26.462Z,928.25
2017-10-05T01:59:45.760Z,928.26
2017-10-05T02:00:03.978Z,928.3
2017-10-05T02:00:22.232Z,928.3
2017-10-05T02:00:41.516Z,928.28
2017-10-05T02:01:00.252Z,928.25
2017-10-05T02:01:18.986Z,928.27
2017-10-05T02:01:38.272Z,928.18
2017-10-05T02:01:56.526Z,928.25
2017-10-05T02:02:15.292Z,928.28
2017-10-05T02:02:33.528Z,928.27
2017-10-05T02:03:07.183Z,928.25
2017-10-05T02:03:25.944Z,928.29
2017-10-05T02:03:44.684Z,928.28
2017-10-05T02:04:03.981Z,928.26
2017-10-05T02:04:22.734Z,928.27
2017-10-05T02:04:42.019Z,928.22
2017-10-05T02:05:00.788Z,928.27
2017-10-05T02:05:20.095Z,928.23
2017-10-05T02:05:38.845Z,928.31
2017-10-05T02:05:58.133Z,928.28
2017-10-05T02:06:17.416Z,928.29
2017-10-05T02:06:36.196Z,928.25
2017-10-05T02:06:54.943Z,928.28
2017-10-05T02:07:13.181Z,928.26
2017-10-05T02:07:32.452Z,928.23
2017-10-05T02:07:50.695Z,928.25
2017-10-05T02:08:09.447Z,928.25
2017-10-05T02:08:27.677Z,928.26
2017-10-05T02:08:46.433Z,928.27
2017-10-05T02:09:05.712Z,928.26
2017-10-05T02:09:24.482Z,928.31
2017-10-05T02:09:43.261Z,928.26
2017-10-05T02:10:00.961Z,928.22
2017-10-05T02:10:19.695Z,928.26
2017-10-05T02:10:38.452Z,928.24
2017-10-05T02:10:57.210Z,928.29
2017-10-05T02:11:15.951Z,928.29
2017-10-05T02:11:34.705Z,928.28
2017-10-05T02:11:52.942Z,928.29
2017-10-05T02:12:11.725Z,928.26
2017-10-05T02:12:29.974Z,928.26
2017-10-05T02:12:48.845Z,928.28
2017-10-05T02:13:08.129Z,928.24
2017-10-05T02:13:26.377Z,928.29
2017-10-05T02:13:44.623Z,928.31
2017-10-05T02:14:02.850Z,928.28
2017-10-05T02:14:21.635Z,928.28
2017-10-05T02:14:39.354Z,928.28
2017-10-05T02:14:57.576Z,928.33
2017-10-05T02:15:16.877Z,928.33
2017-10-05T02:15:36.203Z,928.39
2017-10-05T02:15:54.428Z,928.37
2017-10-05T02:16:12.647Z,928.36
2017-10-05T02:16:31.509Z,928.39
2017-10-05T02:16:50.983Z,928.39
2017-10-05T02:17:09.742Z,928.39
2017-10-05T02:17:28.533Z,928.39
2017-10-05T02:17:47.812Z,928.43
2017-10-05T02:18:06.553Z,928.43
2017-10-05T02:18:25.815Z,928.43
2017-10-05T02:18:44.564Z,928.45
2017-10-05T02:19:03.310Z,928.43
2017-10-05T02:19:22.589Z,928.38
2017-10-05T02:19:40.860Z,928.44
2017-10-05T02:20:00.154Z,928.46
2017-10-05T02:20:18.395Z,928.46
2017-10-05T02:20:36.621Z,928.46
2017-10-05T02:20:55.906Z,928.43
2017-10-05T02:21:14.660Z,928.44
2017-10-05T02:21:32.413Z,928.44
2017-10-05T02:21:50.617Z,928.47
2017-10-05T02:22:09.865Z,928.43
2017-10-05T02:22:28.611Z,928.44
2017-10-05T02:22:48.107Z,928.46
2017-10-05T02:23:06.339Z,928.45
2017-10-05T02:23:25.116Z,928.45
2017-10-05T02:23:43.877Z,928.46
2017-10-05T02:24:03.157Z,928.46
2017-10-05T02:24:21.938Z,928.44
2017-10-05T02:24:40.692Z,928.42
2017-10-05T02:24:59.469Z,928.46
2017-10-05T02:25:18.744Z,928.44
2017-10-05T02:25:36.982Z,928.43
2017-10-05T02:25:55.739Z,928.42
2017-10-05T02:26:13.984Z,928.41
2017-10-05T02:26:32.734Z,928.38
2017-10-05T02:26:52.039Z,928.38
2017-10-05T02:27:10.812Z,928.36
2017-10-05T02:27:29.583Z,928.36
2017-10-05T02:27:48.900Z,928.36
2017-10-05T02:28:07.122Z,928.35
2017-10-05T02:28:26.382Z,928.33
2017-10-05T02:28:44.587Z,928.33
2017-10-05T02:29:03.865Z,928.32
2017-10-05T02:29:23.137Z,928.33
2017-10-05T02:29:41.385Z,928.27
2017-10-05T02:29:59.612Z,928.29
2017-10-05T02:30:18.379Z,928.24
2017-10-05T02:30:37.138Z,928.22
2017-10-05T02:30:55.903Z,928.28
2017-10-05T02:31:14.153Z,928.21
2017-10-05T02:31:31.873Z,928.29
2017-10-05T02:31:50.621Z,928.23
2017-10-05T02:32:08.343Z,928.34
2017-10-05T02:32:27.098Z,928.29
2017-10-05T02:32:46.500Z,928.31
2017-10-05T02:33:04.726Z,928.29
2017-10-05T02:33:24.011Z,928.34
2017-10-05T02:33:43.279Z,928.31
2017-10-05T02:34:02.041Z,928.27
2017-10-05T02:34:20.783Z,928.29
2017-10-05T02:34:40.301Z,928.32
2017-10-05T02:34:58.548Z,928.33
2017-10-05T02:35:17.303Z,928.32
2017-10-05T02:35:36.594Z,928.35
2017-10-05T02:35:55.891Z,928.32
2017-10-05T02:36:14.143Z,928.34
2017-10-05T02:36:31.862Z,928.35
2017-10-05T02:36:50.650Z,928.31
2017-10-05T02:37:09.457Z,928.29
2017-10-05T02:37:28.258Z,928.29
2017-10-05T02:37:46.992Z,928.31
2017-10-05T02:38:06.281Z,928.31
2017-10-05T02:38:24.545Z,928.32
2017-10-05T02:38:43.814Z,928.34
2017-10-05T02:39:02.584Z,928.35
2017-10-05T02:39:21.336Z,928.3
2017-10-05T02:39:40.632Z,928.29
2017-10-05T02:39:59.518Z,928.28
2017-10-05T02:40:17.762Z,928.32
2017-10-05T02:40:37.019Z,928.34
2017-10-05T02:40:55.756Z,928.33
2017-10-05T02:41:13.478Z,928.29
2017-10-05T02:41:32.216Z,928.28
2017-10-05T02:41:50.460Z,928.26
2017-10-05T02:42:08.701Z,928.28
2017-10-05T02:42:27.477Z,928.26
2017-10-05T02:42:46.238Z,928.25
2017-10-05T02:43:04.969Z,928.27
2017-10-05T02:43:24.233Z,928.28
2017-10-05T02:43:43.494Z,928.27
2017-10-05T02:44:01.742Z,928.28
2017-10-05T02:44:20.516Z,928.28
2017-10-05T02:44:38.762Z,928.19
2017-10-05T02:44:57.510Z,928.22
2017-10-05T02:45:16.263Z,928.21
2017-10-05T02:45:35.007Z,928.21
2017-10-05T02:45:54.306Z,928.24
2017-10-05T02:46:13.087Z,928.24
2017-10-05T02:46:32.400Z,928.22
2017-10-05T02:46:50.620Z,928.27
2017-10-05T02:47:09.400Z,928.21
2017-10-05T02:47:28.260Z,928.2
2017-10-05T02:47:47.015Z,928.22
2017-10-05T02:48:05.752Z,928.2
2017-10-05T02:48:25.032Z,928.17
2017-10-05T02:48:43.764Z,928.22
2017-10-05T02:49:02.504Z,928.18
2017-10-05T02:49:21.816Z,928.21
2017-10-05T02:49:40.565Z,928.24
2017-10-05T02:49:58.299Z,928.19
2017-10-05T02:50:17.580Z,928.18
2017-10-05T02:50:36.837Z,928.22
2017-10-05T02:50:56.106Z,928.18
2017-10-05T02:51:15.403Z,928.18
2017-10-05T02:51:34.160Z,928.17
2017-10-05T02:51:53.439Z,928.12
2017-10-05T02:52:11.705Z,928.12
2017-10-05T02:52:30.594Z,928.09
2017-10-05T02:52:49.873Z,928.14
2017-10-05T02:53:08.664Z,928.1
2017-10-05T02:53:27.418Z,928.06
2017-10-05T02:53:46.673Z,928.05
2017-10-05T02:54:04.881Z,928.06
2017-10-05T02:54:23.114Z,928.08
2017-10-05T02:54:41.864Z,928.03
2017-10-05T02:55:00.639Z,927.97
2017-10-05T02:55:19.394Z,928.02
2017-10-05T02:55:37.628Z,928
2017-10-05T02:55:56.384Z,928.06
2017-10-05T02:56:15.147Z,927.98
2017-10-05T02:56:33.916Z,928.01
2017-10-05T02:56:53.205Z,928.02
2017-10-05T02:57:11.407Z,927.98
2017-10-05T02:57:29.645Z,927.98
2017-10-05T02:57:48.942Z,928.03
2017-10-05T02:58:07.679Z,928.06
2017-10-05T02:58:26.962Z,927.94
2017-10-05T02:58:45.742Z,927.95
2017-10-05T02:59:05.012Z,927.99
2017-10-05T02:59:23.762Z,927.95
2017-10-05T02:59:42.009Z,927.98
2017-10-05T03:00:00.242Z,928
2017-10-05T03:00:18.494Z,928
2017-10-05T03:00:37.258Z,928.02
2017-10-05T03:00:56.543Z,927.98
2017-10-05T03:01:15.802Z,927.96
2017-10-05T03:01:34.563Z,927.94
2017-10-05T03:01:53.314Z,927.88
2017-10-05T03:02:11.539Z,927.94
2017-10-05T03:02:29.937Z,927.94
2017-10-05T03:02:48.716Z,927.93
2017-10-05T03:03:07.982Z,927.85
2017-10-05T03:03:26.738Z,927.92
2017-10-05T03:03:46.000Z,927.95
2017-10-05T03:04:05.262Z,927.87
2017-10-05T03:04:24.012Z,927.98
2017-10-05T03:04:42.764Z,927.91
2017-10-05T03:05:02.041Z,927.92
2017-10-05T03:05:21.301Z,927.88
2017-10-05T03:05:39.532Z,927.9
2017-10-05T03:05:58.260Z,927.93
2017-10-05T03:06:17.018Z,927.93
2017-10-05T03:06:35.804Z,927.95
2017-10-05T03:06:55.096Z,927.96
2017-10-05T03:07:14.360Z,927.88
2017-10-05T03:07:32.673Z,927.87
2017-10-05T03:07:51.443Z,927.89
2017-10-05T03:08:09.666Z,927.86
2017-10-05T03:08:27.937Z,927.99
2017-10-05T03:08:47.223Z,927.95
2017-10-05T03:09:05.962Z,927.95
2017-10-05T03:09:24.758Z,927.93
2017-10-05T03:09:42.992Z,927.89
2017-10-05T03:10:01.749Z,927.95
2017-10-05T03:10:20.487Z,927.92
2017-10-05T03:10:38.219Z,927.93
2017-10-05T03:10:56.975Z,927.88
2017-10-05T03:11:14.683Z,927.92
2017-10-05T03:11:33.464Z,927.95
2017-10-05T03:11:52.223Z,927.95
2017-10-05T03:12:10.956Z,927.93
2017-10-05T03:12:29.183Z,927.93
2017-10-05T03:12:47.910Z,927.89
2017-10-05T03:13:06.150Z,927.95
2017-10-05T03:13:24.907Z,927.9
2017-10-05T03:13:43.134Z,927.94
2017-10-05T03:14:01.880Z,927.94
2017-10-05T03:14:21.154Z,927.96
2017-10-05T03:14:40.420Z,927.86
2017-10-05T03:14:59.189Z,927.87
2017-10-05T03:15:18.499Z,927.91
2017-10-05T03:15:37.755Z,927.92
2017-10-05T03:15:55.999Z,927.9
2017-10-05T03:16:14.743Z,927.93
2017-10-05T03:16:34.030Z,927.89
2017-10-05T03:16:52.781Z,927.88
2017-10-05T03:17:12.069Z,927.89
2017-10-05T03:17:30.821Z,927.91
2017-10-05T03:17:49.069Z,927.85
2017-10-05T03:18:08.346Z,927.85
2017-10-05T03:18:26.569Z,927.79
2017-10-05T03:18:45.319Z,927.87
2017-10-05T03:19:04.639Z,927.86
2017-10-05T03:19:22.870Z,927.89
2017-10-05T03:19:41.620Z,927.86
2017-10-05T03:19:59.864Z,927.92
2017-10-05T03:20:18.650Z,927.93
2017-10-05T03:20:37.910Z,927.94
2017-10-05T03:20:56.699Z,927.92
2017-10-05T03:21:16.000Z,927.98
2017-10-05T03:21:34.738Z,927.93
2017-10-05T03:21:54.004Z,927.9
2017-10-05T03:22:13.264Z,927.91
2017-10-05T03:22:32.124Z,927.92
2017-10-05T03:22:50.903Z,927.94
2017-10-05T03:23:09.138Z,927.92
2017-10-05T03:23:27.891Z,927.94
2017-10-05T03:23:46.125Z,927.99
2017-10-05T03:24:04.878Z,927.91
2017-10-05T03:24:24.147Z,927.98
2017-10-05T03:24:42.375Z,927.97
2017-10-05T03:25:01.123Z,927.98
2017-10-05T03:25:20.357Z,927.95
2017-10-05T03:25:37.548Z,927.99
2017-10-05T03:25:55.250Z,927.92
2017-10-05T03:26:14.049Z,927.93
2017-10-05T03:26:32.287Z,927.93
2017-10-05T03:26:51.041Z,927.94
2017-10-05T03:27:09.789Z,927.95
2017-10-05T03:27:29.057Z,927.96
2017-10-05T03:27:47.397Z,927.97
2017-10-05T03:28:06.146Z,927.93
2017-10-05T03:28:23.852Z,927.94
2017-10-05T03:28:43.127Z,927.93
2017-10-05T03:29:02.428Z,927.95
2017-10-05T03:29:21.685Z,927.96
2017-10-05T03:29:39.918Z,927.98
2017-10-05T03:29:59.205Z,927.93
2017-10-05T03:30:17.974Z,927.96
2017-10-05T03:30:37.286Z,927.92
2017-10-05T03:30:56.614Z,927.9
2017-10-05T03:31:15.388Z,927.96
2017-10-05T03:31:34.653Z,927.89
2017-10-05T03:31:53.925Z,927.89
2017-10-05T03:32:13.188Z,927.86
2017-10-05T03:32:31.663Z,927.86
2017-10-05T03:32:50.928Z,927.87
2017-10-05T03:33:09.684Z,927.88
2017-10-05T03:33:28.971Z,927.86
2017-10-05T03:33:47.217Z,927.86
2017-10-05T03:34:06.001Z,927.86
2017-10-05T03:34:24.768Z,927.8
2017-10-05T03:34:44.043Z,927.8
2017-10-05T03:35:02.265Z,927.8
2017-10-05T03:35:21.557Z,927.84
2017-10-05T03:35:40.840Z,927.85
2017-10-05T03:35:59.619Z,927.81
2017-10-05T03:36:18.879Z,927.85
2017-10-05T03:36:38.129Z,927.81
2017-10-05T03:36:55.303Z,927.81
2017-10-05T03:37:13.522Z,927.75
2017-10-05T03:37:32.954Z,927.77
2017-10-05T03:37:52.265Z,927.78
2017-10-05T03:38:11.549Z,927.76
2017-10-05T03:38:30.305Z,927.76
2017-10-05T03:38:49.577Z,927.78
2017-10-05T03:39:08.852Z,927.82
2017-10-05T03:39:28.143Z,927.78
2017-10-05T03:39:46.889Z,927.78
2017-10-05T03:40:05.668Z,927.75
2017-10-05T03:40:24.929Z,927.78
2017-10-05T03:40:43.706Z,927.78
2017-10-05T03:41:02.995Z,927.78
2017-10-05T03:41:22.258Z,927.81
2017-10-05T03:41:41.532Z,927.76
2017-10-05T03:41:59.772Z,927.8
2017-10-05T03:42:18.541Z,927.79
2017-10-05T03:42:37.797Z,927.74
2017-10-05T03:42:57.077Z,927.8
2017-10-05T03:43:16.361Z,927.78
2017-10-05T03:43:35.172Z,927.81
2017-10-05T03:43:54.452Z,927.76
2017-10-05T03:44:13.203Z,927.75
2017-10-05T03:44:31.429Z,927.79
2017-10-05T03:44:50.700Z,927.77
2017-10-05T03:45:09.472Z,927.77
2017-10-05T03:45:28.762Z,927.8
2017-10-05T03:45:47.509Z,927.76
2017-10-05T03:46:06.286Z,927.8
2017-10-05T03:46:25.533Z,927.79
2017-10-05T03:46:44.857Z,927.77
2017-10-05T03:47:04.125Z,927.79
2017-10-05T03:47:22.880Z,927.81
2017-10-05T03:47:42.140Z,927.83
2017-10-05T03:48:01.411Z,927.78
2017-10-05T03:48:20.734Z,927.84
2017-10-05T03:48:40.057Z,927.88
2017-10-05T03:48:59.541Z,927.82
2017-10-05T03:49:18.307Z,927.78
2017-10-05T03:49:37.055Z,927.78
2017-10-05T03:49:55.832Z,927.76
2017-10-05T03:50:15.102Z,927.83
2017-10-05T03:50:33.845Z,927.8
2017-10-05T03:50:52.600Z,927.81
2017-10-05T03:51:11.345Z,927.8
2017-10-05T03:51:30.095Z,927.79
2017-10-05T03:51:49.355Z,927.78
2017-10-05T03:52:08.617Z,927.78
2017-10-05T03:52:27.904Z,927.77
2017-10-05T03:52:46.649Z,927.79
2017-10-05T03:53:05.910Z,927.78
2017-10-05T03:53:24.652Z,927.77
2017-10-05T03:53:43.923Z,927.82
2017-10-05T03:54:02.128Z,927.83
2017-10-05T03:54:20.904Z,927.8
2017-10-05T03:54:39.645Z,927.79
2017-10-05T03:54:58.411Z,927.75
2017-10-05T03:55:17.715Z,927.79
2017-10-05T03:55:36.989Z,927.79
2017-10-05T03:55:56.240Z,927.72
2017-10-05T03:56:15.523Z,927.73
2017-10-05T03:56:34.802Z,927.74
2017-10-05T03:56:52.517Z,927.73
2017-10-05T03:57:11.265Z,927.7
2017-10-05T03:57:29.591Z,927.7
2017-10-05T03:57:47.826Z,927.68
2017-10-05T03:58:06.599Z,927.7
2017-10-05T03:58:25.350Z,927.66
2017-10-05T03:58:44.100Z,927.69
2017-10-05T03:59:02.859Z,927.7
2017-10-05T03:59:21.605Z,927.71